Welcome to Des Moines Iowa Weather. I am an independent private personal weather station on the Northwest Side of Des Moines, Iowa. Just East of Windsor Heights and just West of Glendale . This site is also mobile friendly.

There are no active watches, warnings or advisories


Visit our other weather sites:

Historical Data

Weather Station Setup



Weather Underground History page Text

Daily Summary for March 1, 2018 Units:  English    Metric   Both
« Previous Day
Next Day »
Daily Weekly Monthly Yearly Custom
  High: Low: Average:
Temperature: 45.7 °F 27.4 °F 36.7 °F
Dew Point: 30.2 °F 21.2 °F 26.6 °F
Humidity: 85 % 51 % 68 %
Wind Speed: 11.0 mph 0.0 mph 3.4 mph
Wind Gust: 17.0 mph - -
Wind:- - NW
Pressure: 30.38 in 29.90 in -
Precipitation: 0.00 in    
Historical Graphs
 
 
Tabular Data for March 1, 2018
Time Temperature Dew Point Pressure Wind Wind Speed Wind Gust Humidity Rainfall Rate (Hourly)
00:04 34.2 °F 30.0 °F 29.90 in North 2.0 mph 9.0 mph 85 % 0.00 in
00:10 34.2 °F 30.2 °F 29.91 in NW 3.0 mph 9.0 mph 85 % 0.00 in
00:15 34.2 °F 30.2 °F 29.91 in NW 3.0 mph 9.0 mph 85 % 0.00 in
00:16 34.1 °F 30.0 °F 29.91 in NNW 4.0 mph 9.0 mph 85 % 0.00 in
00:20 34.2 °F 30.2 °F 29.91 in NW 3.0 mph 9.0 mph 85 % 0.00 in
00:25 34.1 °F 30.1 °F 29.91 in NW 4.0 mph 10.0 mph 85 % 0.00 in
00:30 34.1 °F 30.1 °F 29.91 in NW 4.0 mph 10.0 mph 85 % 0.00 in
00:31 33.9 °F 30.0 °F 29.91 in WNW 2.0 mph 13.0 mph 85 % 0.00 in
00:35 34.1 °F 30.1 °F 29.91 in NW 4.0 mph 10.0 mph 85 % 0.00 in
00:40 33.9 °F 29.9 °F 29.91 in NW 5.0 mph 13.0 mph 85 % 0.00 in
00:45 33.9 °F 29.9 °F 29.91 in NW 5.0 mph 13.0 mph 85 % 0.00 in
00:50 33.9 °F 29.9 °F 29.91 in NW 5.0 mph 13.0 mph 85 % 0.00 in
00:51 33.9 °F 30.0 °F 29.91 in NW 7.0 mph 10.0 mph 85 % 0.00 in
00:55 33.9 °F 29.9 °F 29.92 in NW 4.0 mph 12.0 mph 85 % 0.00 in
01:00 33.9 °F 29.9 °F 29.92 in NW 4.0 mph 12.0 mph 85 % 0.00 in
01:01 33.9 °F 30.0 °F 29.91 in NW 4.0 mph 9.0 mph 85 % 0.00 in
01:05 33.9 °F 29.9 °F 29.92 in NW 4.0 mph 12.0 mph 85 % 0.00 in
01:10 33.9 °F 29.9 °F 29.91 in NW 4.0 mph 10.0 mph 85 % 0.00 in
01:15 33.9 °F 29.9 °F 29.91 in NW 4.0 mph 10.0 mph 85 % 0.00 in
01:16 33.8 °F 30.0 °F 29.92 in WNW 10.0 mph 14.0 mph 85 % 0.00 in
01:20 33.9 °F 29.9 °F 29.91 in NW 4.0 mph 10.0 mph 85 % 0.00 in
01:25 33.8 °F 29.8 °F 29.92 in NW 5.0 mph 11.0 mph 85 % 0.00 in
01:30 33.8 °F 29.8 °F 29.92 in NW 5.0 mph 11.0 mph 85 % 0.00 in
01:33 33.9 °F 30.0 °F 29.93 in North 9.0 mph 11.0 mph 84 % 0.00 in
01:35 33.8 °F 29.8 °F 29.92 in NW 5.0 mph 11.0 mph 85 % 0.00 in
01:40 33.9 °F 29.6 °F 29.93 in WNW 5.0 mph 14.0 mph 84 % 0.00 in
01:45 33.9 °F 29.6 °F 29.93 in WNW 5.0 mph 14.0 mph 84 % 0.00 in
01:47 33.9 °F 30.0 °F 29.94 in NW 4.0 mph 10.0 mph 84 % 0.00 in
01:50 33.9 °F 29.6 °F 29.93 in WNW 5.0 mph 14.0 mph 84 % 0.00 in
01:55 33.8 °F 29.5 °F 29.94 in NW 4.0 mph 11.0 mph 84 % 0.00 in
02:00 33.8 °F 29.5 °F 29.94 in NW 4.0 mph 11.0 mph 84 % 0.00 in
02:02 34.1 °F 30.0 °F 29.93 in North 2.0 mph 12.0 mph 84 % 0.00 in
02:05 33.8 °F 29.5 °F 29.94 in NW 4.0 mph 11.0 mph 84 % 0.00 in
02:10 34.0 °F 29.7 °F 29.94 in NW 4.0 mph 12.0 mph 84 % 0.00 in
02:15 34.0 °F 29.7 °F 29.94 in NW 4.0 mph 12.0 mph 84 % 0.00 in
02:17 34.2 °F 30.0 °F 29.94 in NW 3.0 mph 9.0 mph 84 % 0.00 in
02:20 34.0 °F 29.7 °F 29.94 in NW 4.0 mph 12.0 mph 84 % 0.00 in
02:25 34.2 °F 29.9 °F 29.94 in NW 3.0 mph 9.0 mph 84 % 0.00 in
02:30 34.2 °F 29.9 °F 29.94 in NW 3.0 mph 9.0 mph 84 % 0.00 in
02:32 33.8 °F 29.0 °F 29.94 in NW 4.0 mph 9.0 mph 83 % 0.00 in
02:35 34.2 °F 29.9 °F 29.94 in NW 3.0 mph 9.0 mph 84 % 0.00 in
02:40 33.9 °F 29.3 °F 29.94 in NW 3.0 mph 9.0 mph 83 % 0.00 in
02:45 33.9 °F 29.3 °F 29.94 in NW 3.0 mph 9.0 mph 83 % 0.00 in
02:47 33.4 °F 29.0 °F 29.95 in WNW 5.0 mph 10.0 mph 83 % 0.00 in
02:50 33.9 °F 29.3 °F 29.94 in NW 3.0 mph 9.0 mph 83 % 0.00 in
02:55 33.5 °F 28.9 °F 29.95 in NW 4.0 mph 11.0 mph 83 % 0.00 in
03:00 33.5 °F 28.9 °F 29.95 in NW 4.0 mph 11.0 mph 83 % 0.00 in
03:02 33.0 °F 28.0 °F 29.94 in North 4.0 mph 11.0 mph 83 % 0.00 in
03:05 33.5 °F 28.9 °F 29.95 in NW 4.0 mph 11.0 mph 83 % 0.00 in
03:10 33.1 °F 28.5 °F 29.95 in NW 3.0 mph 11.0 mph 83 % 0.00 in
03:15 33.1 °F 28.5 °F 29.95 in NW 3.0 mph 11.0 mph 83 % 0.00 in
03:20 33.1 °F 28.5 °F 29.95 in NW 3.0 mph 11.0 mph 83 % 0.00 in
03:23 32.6 °F 28.0 °F 29.94 in NW 5.0 mph 13.0 mph 83 % 0.00 in
03:25 32.7 °F 28.1 °F 29.94 in NW 3.0 mph 9.0 mph 83 % 0.00 in
03:30 32.7 °F 28.1 °F 29.94 in NW 3.0 mph 9.0 mph 83 % 0.00 in
03:32 32.5 °F 28.0 °F 29.94 in North 8.0 mph 11.0 mph 83 % 0.00 in
03:35 32.7 °F 28.1 °F 29.94 in NW 3.0 mph 9.0 mph 83 % 0.00 in
03:40 32.5 °F 27.9 °F 29.94 in NW 4.0 mph 13.0 mph 83 % 0.00 in
03:45 32.5 °F 27.9 °F 29.94 in NW 4.0 mph 13.0 mph 83 % 0.00 in
03:47 32.5 °F 27.0 °F 29.95 in North 2.0 mph 12.0 mph 81 % 0.00 in
03:50 32.5 °F 27.9 °F 29.94 in NW 4.0 mph 13.0 mph 83 % 0.00 in
03:55 32.5 °F 27.6 °F 29.94 in NW 4.0 mph 12.0 mph 82 % 0.00 in
04:00 32.5 °F 27.6 °F 29.94 in NW 4.0 mph 12.0 mph 82 % 0.00 in
04:02 32.4 °F 27.0 °F 29.96 in NW 5.0 mph 10.0 mph 80 % 0.00 in
04:05 32.5 °F 27.6 °F 29.94 in NW 4.0 mph 12.0 mph 82 % 0.00 in
04:10 32.5 °F 27.0 °F 29.96 in NW 4.0 mph 10.0 mph 80 % 0.00 in
04:15 32.5 °F 27.0 °F 29.96 in NW 4.0 mph 10.0 mph 80 % 0.00 in
04:17 32.4 °F 26.0 °F 29.97 in NW 6.0 mph 14.0 mph 78 % 0.00 in
04:20 32.5 °F 27.0 °F 29.96 in NW 4.0 mph 10.0 mph 80 % 0.00 in
04:25 32.4 °F 26.6 °F 29.96 in NW 4.0 mph 13.0 mph 79 % 0.00 in
04:30 32.4 °F 26.6 °F 29.96 in NW 4.0 mph 13.0 mph 79 % 0.00 in
04:32 32.4 °F 26.0 °F 29.97 in North 5.0 mph 11.0 mph 77 % 0.00 in
04:35 32.4 °F 26.6 °F 29.96 in NW 4.0 mph 13.0 mph 79 % 0.00 in
04:40 32.4 °F 26.0 °F 29.97 in NW 5.0 mph 14.0 mph 77 % 0.00 in
04:45 32.4 °F 26.0 °F 29.97 in NW 5.0 mph 14.0 mph 77 % 0.00 in
04:49 32.4 °F 25.0 °F 29.98 in North 4.0 mph 10.0 mph 75 % 0.00 in
04:50 32.4 °F 26.0 °F 29.97 in NW 5.0 mph 14.0 mph 77 % 0.00 in
04:55 32.4 °F 25.7 °F 29.98 in NW 4.0 mph 11.0 mph 76 % 0.00 in
05:00 32.4 °F 25.7 °F 29.98 in NW 4.0 mph 11.0 mph 76 % 0.00 in
05:02 32.3 °F 25.0 °F 29.98 in North 4.0 mph 11.0 mph 75 % 0.00 in
05:05 32.4 °F 25.7 °F 29.98 in NW 4.0 mph 11.0 mph 76 % 0.00 in
05:10 32.3 °F 25.3 °F 29.98 in NW 4.0 mph 11.0 mph 75 % 0.00 in
05:15 32.3 °F 25.3 °F 29.98 in NW 4.0 mph 11.0 mph 75 % 0.00 in
05:17 32.4 °F 25.0 °F 29.98 in NNW 2.0 mph 11.0 mph 75 % 0.00 in
05:20 32.3 °F 25.3 °F 29.98 in NW 4.0 mph 11.0 mph 75 % 0.00 in
05:25 32.5 °F 25.5 °F 29.99 in NW 5.0 mph 13.0 mph 75 % 0.00 in
05:30 32.5 °F 25.5 °F 29.99 in NW 5.0 mph 13.0 mph 75 % 0.00 in
05:35 32.4 °F 25.0 °F 30.00 in NW 4.0 mph 11.0 mph 75 % 0.00 in
05:40 32.4 °F 25.0 °F 29.99 in NW 4.0 mph 13.0 mph 74 % 0.00 in
05:45 32.4 °F 25.0 °F 29.99 in NW 4.0 mph 13.0 mph 74 % 0.00 in
05:47 32.3 °F 25.0 °F 30.01 in North 3.0 mph 11.0 mph 74 % 0.00 in
05:50 32.4 °F 25.0 °F 29.99 in NW 4.0 mph 13.0 mph 74 % 0.00 in
05:55 32.3 °F 25.0 °F 30.01 in NW 4.0 mph 11.0 mph 74 % 0.00 in
06:00 32.3 °F 25.0 °F 30.01 in NW 4.0 mph 11.0 mph 74 % 0.00 in
06:02 32.2 °F 24.0 °F 30.02 in WNW 4.0 mph 10.0 mph 73 % 0.00 in
06:05 32.3 °F 25.0 °F 30.01 in NW 4.0 mph 11.0 mph 74 % 0.00 in
06:10 32.2 °F 24.5 °F 30.02 in NW 4.0 mph 11.0 mph 73 % 0.00 in
06:15 32.2 °F 24.5 °F 30.02 in NW 4.0 mph 11.0 mph 73 % 0.00 in
06:17 32.0 °F 24.0 °F 30.03 in WNW 2.0 mph 10.0 mph 73 % 0.00 in
06:20 32.2 °F 24.5 °F 30.02 in NW 4.0 mph 11.0 mph 73 % 0.00 in
06:25 32.1 °F 24.4 °F 30.03 in NW 3.0 mph 9.0 mph 73 % 0.00 in
06:30 32.1 °F 24.4 °F 30.03 in NW 3.0 mph 9.0 mph 73 % 0.00 in
06:32 31.5 °F 24.0 °F 30.04 in NW 5.0 mph 9.0 mph 75 % 0.00 in
06:35 32.1 °F 24.4 °F 30.03 in NW 3.0 mph 9.0 mph 73 % 0.00 in
06:40 31.6 °F 24.6 °F 30.04 in WNW 3.0 mph 10.0 mph 75 % 0.00 in
06:45 31.6 °F 24.6 °F 30.04 in WNW 3.0 mph 10.0 mph 75 % 0.00 in
06:47 30.9 °F 24.0 °F 30.05 in WNW 10.0 mph 10.0 mph 74 % 0.00 in
06:50 31.6 °F 24.6 °F 30.04 in WNW 3.0 mph 10.0 mph 75 % 0.00 in
06:55 31.0 °F 24.0 °F 30.05 in NW 4.0 mph 11.0 mph 75 % 0.00 in
07:00 31.0 °F 24.0 °F 30.05 in NW 4.0 mph 11.0 mph 75 % 0.00 in
07:04 30.7 °F 23.0 °F 30.06 in NW 3.0 mph 8.0 mph 72 % 0.00 in
07:05 31.0 °F 24.0 °F 30.05 in NW 4.0 mph 11.0 mph 75 % 0.00 in
07:10 30.7 °F 23.1 °F 30.06 in NW 3.0 mph 10.0 mph 73 % 0.00 in
07:15 30.7 °F 23.1 °F 30.06 in NW 3.0 mph 10.0 mph 73 % 0.00 in
07:17 30.6 °F 23.0 °F 30.06 in NNW 4.0 mph 10.0 mph 72 % 0.00 in
07:20 30.7 °F 23.1 °F 30.06 in NW 3.0 mph 10.0 mph 73 % 0.00 in
07:25 30.6 °F 22.7 °F 30.06 in NW 3.0 mph 8.0 mph 72 % 0.00 in
07:30 30.6 °F 22.7 °F 30.06 in NW 3.0 mph 8.0 mph 72 % 0.00 in
07:35 30.6 °F 22.7 °F 30.06 in NW 3.0 mph 8.0 mph 72 % 0.00 in
07:36 30.9 °F 22.0 °F 30.07 in WNW 2.0 mph 8.0 mph 69 % 0.00 in
07:40 30.8 °F 21.9 °F 30.07 in NNW 3.0 mph 10.0 mph 69 % 0.00 in
07:45 30.8 °F 21.9 °F 30.07 in NNW 3.0 mph 10.0 mph 69 % 0.00 in
07:48 31.6 °F 22.0 °F 30.08 in NW 3.0 mph 10.0 mph 67 % 0.00 in
07:50 30.8 °F 21.9 °F 30.07 in NNW 3.0 mph 10.0 mph 69 % 0.00 in
07:55 31.4 °F 21.7 °F 30.09 in WNW 3.0 mph 10.0 mph 67 % 0.00 in
08:00 31.4 °F 21.7 °F 30.09 in WNW 3.0 mph 10.0 mph 67 % 0.00 in
08:03 32.1 °F 22.0 °F 30.09 in NW 4.0 mph 10.0 mph 67 % 0.00 in
08:05 31.4 °F 21.7 °F 30.09 in WNW 3.0 mph 10.0 mph 67 % 0.00 in
08:10 32.0 °F 22.3 °F 30.09 in NW 4.0 mph 10.0 mph 67 % 0.00 in
08:15 32.0 °F 22.3 °F 30.09 in NW 4.0 mph 10.0 mph 67 % 0.00 in
08:19 32.6 °F 22.0 °F 30.10 in North 1.0 mph 9.0 mph 66 % 0.00 in
08:20 32.0 °F 22.3 °F 30.09 in NW 4.0 mph 10.0 mph 67 % 0.00 in
08:25 32.5 °F 22.4 °F 30.10 in NW 3.0 mph 9.0 mph 66 % 0.00 in
08:30 32.5 °F 22.4 °F 30.10 in NW 3.0 mph 9.0 mph 66 % 0.00 in
08:33 33.3 °F 23.0 °F 30.10 in NW 3.0 mph 9.0 mph 65 % 0.00 in
08:35 32.5 °F 22.4 °F 30.10 in NW 3.0 mph 9.0 mph 66 % 0.00 in
08:40 33.2 °F 23.1 °F 30.10 in North 3.0 mph 9.0 mph 66 % 0.00 in
08:45 33.2 °F 23.1 °F 30.10 in North 3.0 mph 9.0 mph 66 % 0.00 in
08:48 34.3 °F 22.0 °F 30.10 in North 3.0 mph 12.0 mph 61 % 0.00 in
08:50 33.2 °F 23.1 °F 30.10 in North 3.0 mph 9.0 mph 66 % 0.00 in
08:55 34.1 °F 22.1 °F 30.10 in NW 3.0 mph 12.0 mph 61 % 0.00 in
09:00 34.1 °F 22.1 °F 30.10 in NW 3.0 mph 12.0 mph 61 % 0.00 in
09:03 35.5 °F 22.0 °F 30.11 in North 11.0 mph 12.0 mph 58 % 0.00 in
09:05 34.1 °F 22.1 °F 30.10 in NW 3.0 mph 12.0 mph 61 % 0.00 in
09:10 35.9 °F 21.8 °F 30.11 in NNW 4.0 mph 5.0 mph 56 % 0.00 in
09:15 36.2 °F 21.2 °F 30.11 in NW 5.0 mph 10.0 mph 54 % 0.00 in
09:18 36.5 °F 22.0 °F 30.11 in NW 3.0 mph 11.0 mph 55 % 0.00 in
09:20 36.5 °F 21.9 °F 30.11 in NW 4.0 mph 4.0 mph 55 % 0.00 in
09:25 36.9 °F 23.1 °F 30.12 in NW 3.0 mph 4.0 mph 57 % 0.00 in
09:30 36.2 °F 21.2 °F 30.11 in NW 5.0 mph 15.0 mph 54 % 0.00 in
09:33 37.6 °F 23.0 °F 30.13 in WNW 2.0 mph 8.0 mph 57 % 0.00 in
09:35 36.2 °F 21.2 °F 30.11 in NW 5.0 mph 15.0 mph 54 % 0.00 in
09:40 36.2 °F 21.2 °F 30.11 in NW 5.0 mph 15.0 mph 54 % 0.00 in
09:45 37.4 °F 23.6 °F 30.12 in NW 3.0 mph 7.0 mph 57 % 0.00 in
09:49 38.2 °F 25.0 °F 30.13 in West 4.0 mph 9.0 mph 59 % 0.00 in
09:50 37.4 °F 23.6 °F 30.12 in NW 3.0 mph 7.0 mph 57 % 0.00 in
09:55 37.4 °F 23.6 °F 30.12 in NW 3.0 mph 7.0 mph 57 % 0.00 in
10:00 37.8 °F 24.0 °F 30.13 in NW 4.0 mph 9.0 mph 57 % 0.00 in
10:04 38.7 °F 25.0 °F 30.14 in WNW 4.0 mph 9.0 mph 59 % 0.00 in
10:05 37.8 °F 24.0 °F 30.13 in NW 4.0 mph 9.0 mph 57 % 0.00 in
10:10 37.8 °F 24.0 °F 30.13 in NW 4.0 mph 9.0 mph 57 % 0.00 in
10:15 38.6 °F 25.1 °F 30.14 in NW 3.0 mph 8.0 mph 58 % 0.00 in
10:19 39.8 °F 26.0 °F 30.15 in NNW 4.0 mph 10.0 mph 57 % 0.00 in
10:20 38.6 °F 25.1 °F 30.14 in NW 3.0 mph 8.0 mph 58 % 0.00 in
10:25 38.6 °F 25.1 °F 30.14 in NW 3.0 mph 8.0 mph 58 % 0.00 in
10:30 39.3 °F 25.8 °F 30.15 in WNW 4.0 mph 10.0 mph 58 % 0.00 in
10:34 41.1 °F 25.0 °F 30.15 in WNW 5.0 mph 10.0 mph 53 % 0.00 in
10:35 39.3 °F 25.8 °F 30.15 in WNW 4.0 mph 10.0 mph 58 % 0.00 in
10:40 39.3 °F 25.8 °F 30.15 in WNW 4.0 mph 10.0 mph 58 % 0.00 in
10:45 40.6 °F 27.0 °F 30.15 in NW 4.0 mph 9.0 mph 58 % 0.00 in
10:49 41.5 °F 25.0 °F 30.16 in NW 4.0 mph 9.0 mph 53 % 0.00 in
10:50 40.6 °F 27.0 °F 30.15 in NW 4.0 mph 9.0 mph 58 % 0.00 in
10:55 40.6 °F 27.0 °F 30.15 in NW 4.0 mph 9.0 mph 58 % 0.00 in
11:00 41.5 °F 25.2 °F 30.15 in WNW 5.0 mph 12.0 mph 52 % 0.00 in
11:04 41.4 °F 26.0 °F 30.16 in NW 4.0 mph 10.0 mph 54 % 0.00 in
11:05 41.5 °F 25.2 °F 30.15 in WNW 5.0 mph 12.0 mph 52 % 0.00 in
11:10 41.5 °F 25.2 °F 30.15 in WNW 5.0 mph 12.0 mph 52 % 0.00 in
11:15 41.4 °F 25.6 °F 30.16 in NW 4.0 mph 10.0 mph 53 % 0.00 in
11:19 41.8 °F 25.0 °F 30.16 in West 6.0 mph 14.0 mph 51 % 0.00 in
11:20 41.4 °F 25.6 °F 30.16 in NW 4.0 mph 10.0 mph 53 % 0.00 in
11:25 41.4 °F 25.6 °F 30.16 in NW 4.0 mph 10.0 mph 53 % 0.00 in
11:30 41.7 °F 25.8 °F 30.16 in NW 4.0 mph 11.0 mph 53 % 0.00 in
11:34 42.2 °F 25.0 °F 30.17 in West 3.0 mph 13.0 mph 51 % 0.00 in
11:35 41.7 °F 25.8 °F 30.16 in NW 4.0 mph 11.0 mph 53 % 0.00 in
11:40 41.7 °F 25.8 °F 30.16 in NW 4.0 mph 11.0 mph 53 % 0.00 in
11:45 41.9 °F 26.0 °F 30.17 in NW 5.0 mph 14.0 mph 53 % 0.00 in
11:49 43.2 °F 27.0 °F 30.17 in NW 4.0 mph 11.0 mph 53 % 0.00 in
11:50 41.9 °F 26.0 °F 30.17 in NW 5.0 mph 14.0 mph 53 % 0.00 in
11:55 41.9 °F 26.0 °F 30.17 in NW 5.0 mph 14.0 mph 53 % 0.00 in
12:00 43.1 °F 26.7 °F 30.17 in NW 5.0 mph 13.0 mph 52 % 0.00 in
12:04 43.0 °F 28.0 °F 30.18 in NW 2.0 mph 12.0 mph 56 % 0.00 in
12:05 43.1 °F 26.7 °F 30.17 in NW 5.0 mph 13.0 mph 52 % 0.00 in
12:10 43.1 °F 26.7 °F 30.17 in NW 5.0 mph 13.0 mph 52 % 0.00 in
12:15 43.2 °F 27.2 °F 30.18 in NW 5.0 mph 15.0 mph 53 % 0.00 in
12:19 43.9 °F 28.0 °F 30.18 in WNW 3.0 mph 12.0 mph 55 % 0.00 in
12:20 43.2 °F 27.2 °F 30.18 in NW 5.0 mph 15.0 mph 53 % 0.00 in
12:25 43.2 °F 27.2 °F 30.18 in NW 5.0 mph 15.0 mph 53 % 0.00 in
12:30 43.8 °F 28.3 °F 30.18 in NW 4.0 mph 12.0 mph 54 % 0.00 in
12:34 44.2 °F 29.0 °F 30.18 in NNW 2.0 mph 11.0 mph 55 % 0.00 in
12:35 43.8 °F 28.3 °F 30.18 in NW 4.0 mph 12.0 mph 54 % 0.00 in
12:40 43.8 °F 28.3 °F 30.18 in NW 4.0 mph 12.0 mph 54 % 0.00 in
12:45 44.0 °F 29.8 °F 30.19 in NW 5.0 mph 12.0 mph 57 % 0.00 in
12:49 43.7 °F 28.0 °F 30.19 in NW 2.0 mph 13.0 mph 54 % 0.00 in
12:50 44.0 °F 29.8 °F 30.19 in NW 5.0 mph 12.0 mph 57 % 0.00 in
12:55 44.0 °F 29.8 °F 30.19 in NW 5.0 mph 12.0 mph 57 % 0.00 in
13:00 43.6 °F 28.1 °F 30.19 in NW 5.0 mph 14.0 mph 54 % 0.00 in
13:04 44.2 °F 30.0 °F 30.19 in NW 6.0 mph 14.0 mph 57 % 0.00 in
13:05 43.6 °F 28.1 °F 30.19 in NW 5.0 mph 14.0 mph 54 % 0.00 in
13:10 43.6 °F 28.1 °F 30.19 in NW 5.0 mph 14.0 mph 54 % 0.00 in
13:15 44.2 °F 29.5 °F 30.19 in NW 5.0 mph 15.0 mph 56 % 0.00 in
13:19 45.3 °F 29.0 °F 30.20 in NW 3.0 mph 12.0 mph 54 % 0.00 in
13:20 44.2 °F 29.5 °F 30.19 in NW 5.0 mph 15.0 mph 56 % 0.00 in
13:25 44.2 °F 29.5 °F 30.19 in NW 5.0 mph 15.0 mph 56 % 0.00 in
13:30 44.7 °F 28.6 °F 30.19 in WNW 5.0 mph 12.0 mph 53 % 0.00 in
13:34 45.4 °F 29.0 °F 30.20 in WNW 5.0 mph 17.0 mph 53 % 0.00 in
13:35 44.7 °F 28.6 °F 30.19 in WNW 5.0 mph 12.0 mph 53 % 0.00 in
13:40 44.7 °F 28.6 °F 30.19 in WNW 5.0 mph 12.0 mph 53 % 0.00 in
13:45 44.9 °F 27.9 °F 30.20 in NW 5.0 mph 12.0 mph 51 % 0.00 in
13:49 45.0 °F 29.0 °F 30.21 in NW 5.0 mph 12.0 mph 54 % 0.00 in
13:50 44.9 °F 27.9 °F 30.20 in NW 5.0 mph 12.0 mph 51 % 0.00 in
13:55 44.9 °F 27.9 °F 30.20 in NW 5.0 mph 12.0 mph 51 % 0.00 in
14:00 45.1 °F 29.5 °F 30.21 in WNW 5.0 mph 17.0 mph 54 % 0.00 in
14:05 45.7 °F 29.0 °F 30.21 in WNW 3.0 mph 13.0 mph 53 % 0.00 in
14:10 45.1 °F 29.5 °F 30.21 in WNW 5.0 mph 17.0 mph 54 % 0.00 in
14:15 45.3 °F 29.6 °F 30.21 in NW 6.0 mph 16.0 mph 54 % 0.00 in
14:19 45.0 °F 29.0 °F 30.21 in WNW 8.0 mph 14.0 mph 54 % 0.00 in
14:20 45.3 °F 29.6 °F 30.21 in NW 6.0 mph 16.0 mph 54 % 0.00 in
14:25 45.3 °F 29.6 °F 30.21 in NW 6.0 mph 16.0 mph 54 % 0.00 in
14:30 45.2 °F 28.6 °F 30.21 in WNW 5.0 mph 12.0 mph 52 % 0.00 in
14:35 45.2 °F 28.6 °F 30.21 in WNW 5.0 mph 12.0 mph 52 % 0.00 in
14:37 44.7 °F 28.0 °F 30.21 in NW 3.0 mph 14.0 mph 53 % 0.00 in
14:40 45.2 °F 28.6 °F 30.21 in WNW 5.0 mph 12.0 mph 52 % 0.00 in
14:45 45.2 °F 29.1 °F 30.22 in NW 5.0 mph 14.0 mph 53 % 0.00 in
14:49 44.6 °F 28.0 °F 30.21 in NNW 2.0 mph 10.0 mph 53 % 0.00 in
14:50 45.2 °F 29.1 °F 30.22 in NW 5.0 mph 14.0 mph 53 % 0.00 in
14:55 45.2 °F 29.1 °F 30.22 in NW 5.0 mph 14.0 mph 53 % 0.00 in
15:00 44.7 °F 28.6 °F 30.22 in NW 5.0 mph 11.0 mph 53 % 0.00 in
15:04 44.3 °F 28.0 °F 30.22 in NNW 2.0 mph 12.0 mph 53 % 0.00 in
15:05 44.7 °F 28.6 °F 30.22 in NW 5.0 mph 11.0 mph 53 % 0.00 in
15:10 44.7 °F 28.6 °F 30.22 in NW 5.0 mph 11.0 mph 53 % 0.00 in
15:15 44.5 °F 28.5 °F 30.22 in WNW 4.0 mph 11.0 mph 53 % 0.00 in
15:20 44.5 °F 28.5 °F 30.22 in WNW 4.0 mph 11.0 mph 53 % 0.00 in
15:25 44.0 °F 28.0 °F 30.23 in WNW 2.0 mph 12.0 mph 53 % 0.00 in
15:30 44.3 °F 28.3 °F 30.23 in NW 4.0 mph 11.0 mph 53 % 0.00 in
15:35 44.3 °F 28.3 °F 30.23 in NW 4.0 mph 11.0 mph 53 % 0.00 in
15:36 44.2 °F 29.0 °F 30.23 in NW 4.0 mph 9.0 mph 55 % 0.00 in
15:40 44.3 °F 28.3 °F 30.23 in NW 4.0 mph 11.0 mph 53 % 0.00 in
15:45 43.9 °F 28.4 °F 30.23 in WNW 5.0 mph 12.0 mph 54 % 0.00 in
15:49 43.7 °F 28.0 °F 30.23 in NNW 4.0 mph 12.0 mph 54 % 0.00 in
15:50 43.9 °F 28.4 °F 30.23 in WNW 5.0 mph 12.0 mph 54 % 0.00 in
15:55 43.9 °F 28.4 °F 30.23 in WNW 5.0 mph 12.0 mph 54 % 0.00 in
16:00 44.2 °F 28.2 °F 30.23 in NW 3.0 mph 9.0 mph 53 % 0.00 in
16:04 43.4 °F 27.0 °F 30.24 in NW 9.0 mph 12.0 mph 53 % 0.00 in
16:05 44.2 °F 28.2 °F 30.23 in NW 3.0 mph 9.0 mph 53 % 0.00 in
16:10 44.2 °F 28.2 °F 30.23 in NW 3.0 mph 9.0 mph 53 % 0.00 in
16:15 43.6 °F 28.1 °F 30.24 in NW 5.0 mph 12.0 mph 54 % 0.00 in
16:19 43.1 °F 28.0 °F 30.25 in NW 3.0 mph 11.0 mph 55 % 0.00 in
16:20 43.6 °F 28.1 °F 30.24 in NW 5.0 mph 12.0 mph 54 % 0.00 in
16:25 43.6 °F 28.1 °F 30.24 in NW 5.0 mph 12.0 mph 54 % 0.00 in
16:30 43.0 °F 28.0 °F 30.25 in NW 4.0 mph 11.0 mph 55 % 0.00 in
16:35 43.1 °F 29.0 °F 30.25 in NW 8.0 mph 10.0 mph 57 % 0.00 in
16:40 43.0 °F 28.0 °F 30.25 in NW 4.0 mph 11.0 mph 55 % 0.00 in
16:45 43.2 °F 29.0 °F 30.25 in WNW 4.0 mph 11.0 mph 57 % 0.00 in
16:50 42.3 °F 27.0 °F 30.26 in West 6.0 mph 10.0 mph 56 % 0.00 in
16:55 43.2 °F 29.0 °F 30.25 in WNW 4.0 mph 11.0 mph 57 % 0.00 in
17:00 42.6 °F 28.0 °F 30.26 in NW 4.0 mph 9.0 mph 56 % 0.00 in
17:05 41.8 °F 28.0 °F 30.27 in NW 4.0 mph 11.0 mph 58 % 0.00 in
17:10 42.6 °F 28.0 °F 30.26 in NW 4.0 mph 9.0 mph 56 % 0.00 in
17:15 41.9 °F 27.8 °F 30.26 in WNW 4.0 mph 10.0 mph 57 % 0.00 in
17:20 41.4 °F 27.0 °F 30.27 in NW 7.0 mph 10.0 mph 58 % 0.00 in
17:25 41.9 °F 27.8 °F 30.26 in WNW 4.0 mph 10.0 mph 57 % 0.00 in
17:30 41.5 °F 27.8 °F 30.27 in NW 3.0 mph 10.0 mph 58 % 0.00 in
17:35 41.0 °F 27.0 °F 30.27 in WNW 1.0 mph 9.0 mph 59 % 0.00 in
17:40 41.5 °F 27.8 °F 30.27 in NW 3.0 mph 10.0 mph 58 % 0.00 in
17:45 41.1 °F 27.5 °F 30.28 in NW 4.0 mph 11.0 mph 58 % 0.00 in
17:50 40.8 °F 29.0 °F 30.28 in WNW 5.0 mph 5.0 mph 62 % 0.00 in
17:55 41.1 °F 27.5 °F 30.28 in NW 4.0 mph 11.0 mph 58 % 0.00 in
18:00 40.9 °F 28.5 °F 30.27 in NW 2.0 mph 9.0 mph 61 % 0.00 in
18:05 40.2 °F 28.0 °F 30.28 in WNW 2.0 mph 9.0 mph 62 % 0.00 in
18:10 40.9 °F 28.5 °F 30.27 in NW 2.0 mph 9.0 mph 61 % 0.00 in
18:15 40.4 °F 28.4 °F 30.28 in NW 2.0 mph 6.0 mph 62 % 0.00 in
18:20 39.5 °F 27.0 °F 30.29 in NNW 2.0 mph 5.0 mph 62 % 0.00 in
18:25 40.4 °F 28.4 °F 30.28 in NW 2.0 mph 6.0 mph 62 % 0.00 in
18:30 39.7 °F 27.8 °F 30.28 in NW 2.0 mph 9.0 mph 62 % 0.00 in
18:35 38.8 °F 27.0 °F 30.29 in NW 2.0 mph 5.0 mph 64 % 0.00 in
18:40 39.7 °F 27.8 °F 30.28 in NW 2.0 mph 9.0 mph 62 % 0.00 in
18:45 39.0 °F 27.5 °F 30.29 in NNW 1.0 mph 5.0 mph 63 % 0.00 in
18:50 38.2 °F 27.0 °F 30.30 in Calm   2.0 mph 65 % 0.00 in
18:55 39.0 °F 27.5 °F 30.29 in NNW 1.0 mph 5.0 mph 63 % 0.00 in
19:00 38.4 °F 27.7 °F 30.29 in WNW 1.0 mph 5.0 mph 65 % 0.00 in
19:05 37.4 °F 27.0 °F 30.30 in Calm     66 % 0.00 in
19:10 38.4 °F 27.7 °F 30.29 in WNW 1.0 mph 5.0 mph 65 % 0.00 in
19:15 37.7 °F 27.0 °F 30.30 in Calm     65 % 0.00 in
19:20 36.6 °F 27.0 °F 30.30 in NW 1.0 mph 4.0 mph 69 % 0.00 in
19:25 37.7 °F 27.0 °F 30.30 in Calm     65 % 0.00 in
19:30 36.9 °F 27.0 °F 30.30 in Calm   3.0 mph 67 % 0.00 in
19:35 36.0 °F 27.0 °F 30.30 in NW 1.0 mph 6.0 mph 71 % 0.00 in
19:40 36.9 °F 27.0 °F 30.30 in Calm   3.0 mph 67 % 0.00 in
19:45 36.1 °F 27.6 °F 30.30 in NW 2.0 mph 5.0 mph 71 % 0.00 in
19:50 35.9 °F 28.0 °F 30.31 in North 3.0 mph 4.0 mph 72 % 0.00 in
19:55 36.1 °F 27.6 °F 30.30 in NW 2.0 mph 5.0 mph 71 % 0.00 in
20:00 36.0 °F 27.9 °F 30.31 in NW 2.0 mph 7.0 mph 72 % 0.00 in
20:05 35.5 °F 28.0 °F 30.32 in WNW 1.0 mph 7.0 mph 73 % 0.00 in
20:10 36.0 °F 27.9 °F 30.31 in NW 2.0 mph 7.0 mph 72 % 0.00 in
20:15 35.7 °F 27.6 °F 30.32 in NNW 2.0 mph 4.0 mph 72 % 0.00 in
20:20 35.0 °F 27.0 °F 30.32 in WNW 1.0 mph 4.0 mph 73 % 0.00 in
20:25 35.7 °F 27.6 °F 30.32 in NNW 2.0 mph 4.0 mph 72 % 0.00 in
20:30 35.2 °F 27.4 °F 30.32 in WNW 2.0 mph 7.0 mph 73 % 0.00 in
20:35 34.6 °F 27.0 °F 30.33 in Calm   3.0 mph 74 % 0.00 in
20:40 35.2 °F 27.4 °F 30.32 in WNW 2.0 mph 7.0 mph 73 % 0.00 in
20:45 34.8 °F 27.0 °F 30.33 in WNW 1.0 mph 3.0 mph 73 % 0.00 in
20:50 34.1 °F 27.0 °F 30.34 in Calm   2.0 mph 74 % 0.00 in
20:55 34.8 °F 27.0 °F 30.33 in WNW 1.0 mph 3.0 mph 73 % 0.00 in
21:00 34.3 °F 26.9 °F 30.34 in Calm   2.0 mph 74 % 0.00 in
21:05 34.3 °F 26.9 °F 30.34 in Calm   2.0 mph 74 % 0.00 in
21:06 33.5 °F 26.0 °F 30.34 in Calm     75 % 0.00 in
21:10 34.3 °F 26.9 °F 30.34 in Calm   2.0 mph 74 % 0.00 in
21:15 33.7 °F 26.6 °F 30.34 in Calm   2.0 mph 75 % 0.00 in
21:20 32.9 °F 26.0 °F 30.34 in Calm   3.0 mph 76 % 0.00 in
21:25 33.7 °F 26.6 °F 30.34 in Calm   2.0 mph 75 % 0.00 in
21:30 33.1 °F 26.4 °F 30.35 in Calm   3.0 mph 76 % 0.00 in
21:35 32.2 °F 26.0 °F 30.35 in Calm   1.0 mph 77 % 0.00 in
21:40 33.1 °F 26.4 °F 30.35 in Calm   3.0 mph 76 % 0.00 in
21:45 32.4 °F 26.0 °F 30.35 in Calm   1.0 mph 77 % 0.00 in
21:50 31.6 °F 25.0 °F 30.35 in Calm     78 % 0.00 in
21:55 32.4 °F 26.0 °F 30.35 in Calm   1.0 mph 77 % 0.00 in
22:00 31.9 °F 25.5 °F 30.35 in Calm   1.0 mph 77 % 0.00 in
22:05 31.1 °F 25.0 °F 30.37 in Calm     79 % 0.00 in
22:10 31.9 °F 25.5 °F 30.35 in Calm   1.0 mph 77 % 0.00 in
22:15 31.3 °F 25.6 °F 30.36 in Calm     79 % 0.00 in
22:20 30.6 °F 25.0 °F 30.37 in Calm     79 % 0.00 in
22:25 31.3 °F 25.6 °F 30.36 in Calm     79 % 0.00 in
22:30 30.8 °F 25.1 °F 30.37 in Calm     79 % 0.00 in
22:35 29.9 °F 24.0 °F 30.37 in Calm     80 % 0.00 in
22:40 30.8 °F 25.1 °F 30.37 in Calm     79 % 0.00 in
22:45 30.2 °F 24.5 °F 30.37 in Calm     79 % 0.00 in
22:50 29.3 °F 24.0 °F 30.37 in Calm     80 % 0.00 in
22:55 30.2 °F 24.5 °F 30.37 in Calm     79 % 0.00 in
23:00 29.5 °F 24.1 °F 30.37 in Calm     80 % 0.00 in
23:05 28.7 °F 24.0 °F 30.37 in Calm     81 % 0.00 in
23:10 29.5 °F 24.1 °F 30.37 in Calm     80 % 0.00 in
23:15 28.9 °F 23.8 °F 30.38 in Calm     81 % 0.00 in
23:20 28.2 °F 23.0 °F 30.37 in Calm     82 % 0.00 in
23:25 28.9 °F 23.8 °F 30.38 in Calm     81 % 0.00 in
23:30 28.4 °F 23.6 °F 30.37 in Calm     82 % 0.00 in
23:35 27.8 °F 23.0 °F 30.38 in Calm     82 % 0.00 in
23:40 28.4 °F 23.6 °F 30.37 in Calm     82 % 0.00 in
23:45 27.9 °F 23.1 °F 30.38 in Calm     82 % 0.00 in
23:50 27.4 °F 23.0 °F 30.38 in Calm     83 % 0.00 in
23:55 27.9 °F 23.1 °F 30.38 in Calm     82 % 0.00 in
Des Moines Weather and Climate
Compliments of Weather Underground - 4.5 mb

Script developed by  Jim McMurry - jmcmurry@mwt.net Adapted for the template by  Wim van der Kuil - Leuven-Template.eu

You find our weather info also at:

Weather Underground

Equipment we use:

Weather-station
Davis VP2 Plus

Weather-program
Davis Weatherlink.Com

Weather-server
iMac (Retina 4K, 21.5-inch, Late 2015)

Provider
Hostmonster.com

Davis VP2 Plus

Davis Weatherlink.Com

iMac (Retina 4K, 21.5-inch, Late 2015)

Hostmonster.com